sensor_id;sensor_type;location;lat;lon;timestamp;temperature;humidity
66726;HTU21D;53638;51.062;5.804;2022-08-20T00:00:48;20.07;118.99
66726;HTU21D;53638;51.062;5.804;2022-08-20T00:03:22;20.11;118.99
66726;HTU21D;53638;51.062;5.804;2022-08-20T00:05:53;20.10;118.99
66726;HTU21D;53638;51.062;5.804;2022-08-20T00:08:20;20.01;118.99
66726;HTU21D;53638;51.062;5.804;2022-08-20T00:10:48;19.97;118.99
66726;HTU21D;53638;51.062;5.804;2022-08-20T00:13:19;19.97;118.99
66726;HTU21D;53638;51.062;5.804;2022-08-20T00:15:46;19.94;118.99
66726;HTU21D;53638;51.062;5.804;2022-08-20T00:18:13;19.84;118.99
66726;HTU21D;53638;51.062;5.804;2022-08-20T00:20:44;19.77;118.99
66726;HTU21D;53638;51.062;5.804;2022-08-20T00:23:10;19.76;118.99
66726;HTU21D;53638;51.062;5.804;2022-08-20T00:25:38;19.69;118.99
66726;HTU21D;53638;51.062;5.804;2022-08-20T00:28:04;19.70;118.99
66726;HTU21D;53638;51.062;5.804;2022-08-20T00:30:34;19.73;118.99
66726;HTU21D;53638;51.062;5.804;2022-08-20T00:33:07;19.76;118.99
66726;HTU21D;53638;51.062;5.804;2022-08-20T00:35:36;19.82;118.99
66726;HTU21D;53638;51.062;5.804;2022-08-20T00:38:03;19.81;118.99
66726;HTU21D;53638;51.062;5.804;2022-08-20T00:40:35;19.81;118.99
66726;HTU21D;53638;51.062;5.804;2022-08-20T00:43:05;19.82;118.99
66726;HTU21D;53638;51.062;5.804;2022-08-20T00:45:34;19.86;118.99
66726;HTU21D;53638;51.062;5.804;2022-08-20T00:48:00;19.91;118.99
66726;HTU21D;53638;51.062;5.804;2022-08-20T00:50:34;19.94;118.99
66726;HTU21D;53638;51.062;5.804;2022-08-20T00:53:03;19.95;118.99
66726;HTU21D;53638;51.062;5.804;2022-08-20T00:55:32;19.96;118.99
66726;HTU21D;53638;51.062;5.804;2022-08-20T00:58:03;19.95;118.99
66726;HTU21D;53638;51.062;5.804;2022-08-20T01:00:38;19.98;118.99
66726;HTU21D;53638;51.062;5.804;2022-08-20T01:03:08;20.03;118.99
66726;HTU21D;53638;51.062;5.804;2022-08-20T01:05:36;19.86;118.99
66726;HTU21D;53638;51.062;5.804;2022-08-20T01:08:03;19.77;118.99
66726;HTU21D;53638;51.062;5.804;2022-08-20T01:10:34;19.77;118.99
66726;HTU21D;53638;51.062;5.804;2022-08-20T01:13:05;19.82;118.99
66726;HTU21D;53638;51.062;5.804;2022-08-20T01:15:36;19.85;118.99
66726;HTU21D;53638;51.062;5.804;2022-08-20T01:18:09;19.89;118.99
66726;HTU21D;53638;51.062;5.804;2022-08-20T01:20:40;19.86;118.99
66726;HTU21D;53638;51.062;5.804;2022-08-20T01:23:29;19.79;118.99
66726;HTU21D;53638;51.062;5.804;2022-08-20T01:26:16;19.69;118.99
66726;HTU21D;53638;51.062;5.804;2022-08-20T01:28:52;19.67;118.99
66726;HTU21D;53638;51.062;5.804;2022-08-20T01:31:22;19.62;118.99
66726;HTU21D;53638;51.062;5.804;2022-08-20T01:33:50;19.63;118.99
66726;HTU21D;53638;51.062;5.804;2022-08-20T01:36:20;19.65;118.99
66726;HTU21D;53638;51.062;5.804;2022-08-20T01:38:46;19.63;118.99
66726;HTU21D;53638;51.062;5.804;2022-08-20T01:41:28;19.53;118.99
66726;HTU21D;53638;51.062;5.804;2022-08-20T01:43:57;19.36;118.99
66726;HTU21D;53638;51.062;5.804;2022-08-20T01:46:36;19.23;118.99
66726;HTU21D;53638;51.062;5.804;2022-08-20T01:49:11;19.15;118.99
66726;HTU21D;53638;51.062;5.804;2022-08-20T01:51:37;19.15;118.99
66726;HTU21D;53638;51.062;5.804;2022-08-20T01:54:04;19.14;118.99
66726;HTU21D;53638;51.062;5.804;2022-08-20T01:56:33;19.13;118.99
66726;HTU21D;53638;51.062;5.804;2022-08-20T01:59:01;19.12;118.99
66726;HTU21D;53638;51.062;5.804;2022-08-20T02:01:32;19.13;118.99
66726;HTU21D;53638;51.062;5.804;2022-08-20T02:04:01;19.13;118.99
66726;HTU21D;53638;51.062;5.804;2022-08-20T02:06:30;19.15;118.99
66726;HTU21D;53638;51.062;5.804;2022-08-20T02:08:59;19.15;118.99
66726;HTU21D;53638;51.062;5.804;2022-08-20T02:11:27;19.12;118.99
66726;HTU21D;53638;51.062;5.804;2022-08-20T02:13:53;19.08;118.99
66726;HTU21D;53638;51.062;5.804;2022-08-20T02:16:23;19.09;118.99
66726;HTU21D;53638;51.062;5.804;2022-08-20T02:18:57;19.09;118.99
66726;HTU21D;53638;51.062;5.804;2022-08-20T02:21:27;19.10;118.99
66726;HTU21D;53638;51.062;5.804;2022-08-20T02:23:55;19.09;118.99
66726;HTU21D;53638;51.062;5.804;2022-08-20T02:26:21;19.06;118.99
66726;HTU21D;53638;51.062;5.804;2022-08-20T02:28:48;19.03;118.99
66726;HTU21D;53638;51.062;5.804;2022-08-20T02:31:17;19.01;118.99
66726;HTU21D;53638;51.062;5.804;2022-08-20T02:33:44;19.00;118.99
66726;HTU21D;53638;51.062;5.804;2022-08-20T02:36:13;18.97;118.99
66726;HTU21D;53638;51.062;5.804;2022-08-20T02:38:42;18.95;118.99
66726;HTU21D;53638;51.062;5.804;2022-08-20T02:41:09;18.93;118.99
66726;HTU21D;53638;51.062;5.804;2022-08-20T02:43:35;18.84;118.99
66726;HTU21D;53638;51.062;5.804;2022-08-20T02:46:04;18.82;118.99
66726;HTU21D;53638;51.062;5.804;2022-08-20T02:48:31;18.78;118.99
66726;HTU21D;53638;51.062;5.804;2022-08-20T02:51:02;18.76;118.99
66726;HTU21D;53638;51.062;5.804;2022-08-20T02:53:31;18.74;118.99
66726;HTU21D;53638;51.062;5.804;2022-08-20T02:55:57;18.74;118.99
66726;HTU21D;53638;51.062;5.804;2022-08-20T02:58:24;18.73;118.99
66726;HTU21D;53638;51.062;5.804;2022-08-20T03:00:50;18.71;118.99
66726;HTU21D;53638;51.062;5.804;2022-08-20T03:03:16;18.77;118.99
66726;HTU21D;53638;51.062;5.804;2022-08-20T03:05:49;18.76;118.99
66726;HTU21D;53638;51.062;5.804;2022-08-20T03:08:15;18.73;118.99
66726;HTU21D;53638;51.062;5.804;2022-08-20T03:10:44;18.73;118.99
66726;HTU21D;53638;51.062;5.804;2022-08-20T03:13:12;18.72;118.99
66726;HTU21D;53638;51.062;5.804;2022-08-20T03:15:43;18.67;118.99
66726;HTU21D;53638;51.062;5.804;2022-08-20T03:18:10;18.65;118.99
66726;HTU21D;53638;51.062;5.804;2022-08-20T03:20:36;18.58;118.99
66726;HTU21D;53638;51.062;5.804;2022-08-20T03:23:03;18.59;118.99
66726;HTU21D;53638;51.062;5.804;2022-08-20T03:25:29;18.53;118.99
66726;HTU21D;53638;51.062;5.804;2022-08-20T03:27:55;18.47;118.99
66726;HTU21D;53638;51.062;5.804;2022-08-20T03:30:24;18.49;118.99
66726;HTU21D;53638;51.062;5.804;2022-08-20T03:32:50;18.43;118.99
66726;HTU21D;53638;51.062;5.804;2022-08-20T03:35:19;18.47;118.99
66726;HTU21D;53638;51.062;5.804;2022-08-20T03:37:46;18.46;118.99
66726;HTU21D;53638;51.062;5.804;2022-08-20T03:40:16;18.48;118.99
66726;HTU21D;53638;51.062;5.804;2022-08-20T03:42:42;18.52;118.99
66726;HTU21D;53638;51.062;5.804;2022-08-20T03:45:09;18.52;118.99
66726;HTU21D;53638;51.062;5.804;2022-08-20T03:47:38;18.58;118.99
66726;HTU21D;53638;51.062;5.804;2022-08-20T03:50:07;18.58;118.99
66726;HTU21D;53638;51.062;5.804;2022-08-20T03:52:34;18.55;118.99
66726;HTU21D;53638;51.062;5.804;2022-08-20T03:55:00;18.52;118.99
66726;HTU21D;53638;51.062;5.804;2022-08-20T03:57:26;18.39;118.99
66726;HTU21D;53638;51.062;5.804;2022-08-20T03:59:53;18.38;118.99
66726;HTU21D;53638;51.062;5.804;2022-08-20T04:02:19;18.32;118.99
66726;HTU21D;53638;51.062;5.804;2022-08-20T04:04:45;18.24;118.99
66726;HTU21D;53638;51.062;5.804;2022-08-20T04:07:15;18.27;118.99
66726;HTU21D;53638;51.062;5.804;2022-08-20T04:09:42;18.29;118.99
66726;HTU21D;53638;51.062;5.804;2022-08-20T04:12:09;18.28;118.99
66726;HTU21D;53638;51.062;5.804;2022-08-20T04:14:38;18.23;118.99
66726;HTU21D;53638;51.062;5.804;2022-08-20T04:17:06;18.22;118.99
66726;HTU21D;53638;51.062;5.804;2022-08-20T04:19:32;18.25;118.99
66726;HTU21D;53638;51.062;5.804;2022-08-20T04:21:59;18.29;118.99
66726;HTU21D;53638;51.062;5.804;2022-08-20T04:24:25;18.34;118.99
66726;HTU21D;53638;51.062;5.804;2022-08-20T04:26:52;18.34;118.99
66726;HTU21D;53638;51.062;5.804;2022-08-20T04:29:20;18.30;118.99
66726;HTU21D;53638;51.062;5.804;2022-08-20T04:31:47;18.24;118.99
66726;HTU21D;53638;51.062;5.804;2022-08-20T04:34:13;18.18;118.99
66726;HTU21D;53638;51.062;5.804;2022-08-20T04:36:38;18.13;118.99
66726;HTU21D;53638;51.062;5.804;2022-08-20T04:39:05;18.13;118.99
66726;HTU21D;53638;51.062;5.804;2022-08-20T04:41:31;18.08;118.99
66726;HTU21D;53638;51.062;5.804;2022-08-20T04:43:57;18.09;118.99
66726;HTU21D;53638;51.062;5.804;2022-08-20T04:46:25;18.10;118.99
66726;HTU21D;53638;51.062;5.804;2022-08-20T04:48:54;18.08;118.99
66726;HTU21D;53638;51.062;5.804;2022-08-20T04:51:20;18.03;118.99
66726;HTU21D;53638;51.062;5.804;2022-08-20T04:53:46;18.00;118.99
66726;HTU21D;53638;51.062;5.804;2022-08-20T04:56:13;17.95;118.99
66726;HTU21D;53638;51.062;5.804;2022-08-20T04:58:40;17.93;118.99
66726;HTU21D;53638;51.062;5.804;2022-08-20T05:01:09;17.93;118.99
66726;HTU21D;53638;51.062;5.804;2022-08-20T05:03:38;17.90;118.99
66726;HTU21D;53638;51.062;5.804;2022-08-20T05:06:06;17.93;118.99
66726;HTU21D;53638;51.062;5.804;2022-08-20T05:08:33;17.91;118.99
66726;HTU21D;53638;51.062;5.804;2022-08-20T05:11:01;17.94;118.99
66726;HTU21D;53638;51.062;5.804;2022-08-20T05:13:27;17.93;118.99
66726;HTU21D;53638;51.062;5.804;2022-08-20T05:15:53;17.92;118.99
66726;HTU21D;53638;51.062;5.804;2022-08-20T05:18:23;17.92;118.99
66726;HTU21D;53638;51.062;5.804;2022-08-20T05:20:51;17.85;118.99
66726;HTU21D;53638;51.062;5.804;2022-08-20T05:23:19;17.82;118.99
66726;HTU21D;53638;51.062;5.804;2022-08-20T05:25:47;17.80;118.99
66726;HTU21D;53638;51.062;5.804;2022-08-20T05:28:20;17.77;118.99
66726;HTU21D;53638;51.062;5.804;2022-08-20T05:30:48;17.77;118.99
66726;HTU21D;53638;51.062;5.804;2022-08-20T05:33:16;17.80;118.99
66726;HTU21D;53638;51.062;5.804;2022-08-20T05:35:45;17.81;118.99
66726;HTU21D;53638;51.062;5.804;2022-08-20T05:38:14;17.84;118.99
66726;HTU21D;53638;51.062;5.804;2022-08-20T05:40:41;17.87;118.99
66726;HTU21D;53638;51.062;5.804;2022-08-20T05:43:08;17.83;118.99
66726;HTU21D;53638;51.062;5.804;2022-08-20T05:45:36;17.84;118.99
66726;HTU21D;53638;51.062;5.804;2022-08-20T05:48:06;17.87;118.99
66726;HTU21D;53638;51.062;5.804;2022-08-20T05:50:33;17.81;118.99
66726;HTU21D;53638;51.062;5.804;2022-08-20T05:53:00;17.77;118.99
66726;HTU21D;53638;51.062;5.804;2022-08-20T05:55:27;17.81;118.99
66726;HTU21D;53638;51.062;5.804;2022-08-20T05:57:57;17.87;118.99
66726;HTU21D;53638;51.062;5.804;2022-08-20T06:00:23;17.89;118.99
66726;HTU21D;53638;51.062;5.804;2022-08-20T06:02:49;17.83;118.99
66726;HTU21D;53638;51.062;5.804;2022-08-20T06:05:33;17.84;118.99
66726;HTU21D;53638;51.062;5.804;2022-08-20T06:07:59;17.82;118.99
66726;HTU21D;53638;51.062;5.804;2022-08-20T06:10:25;17.80;118.99
66726;HTU21D;53638;51.062;5.804;2022-08-20T06:12:51;17.81;118.99
66726;HTU21D;53638;51.062;5.804;2022-08-20T06:15:18;17.88;118.99
66726;HTU21D;53638;51.062;5.804;2022-08-20T06:17:45;17.92;118.99
66726;HTU21D;53638;51.062;5.804;2022-08-20T06:20:11;17.95;118.99
66726;HTU21D;53638;51.062;5.804;2022-08-20T06:22:37;18.00;118.99
66726;HTU21D;53638;51.062;5.804;2022-08-20T06:25:04;18.05;118.99
66726;HTU21D;53638;51.062;5.804;2022-08-20T06:27:31;18.08;118.99
66726;HTU21D;53638;51.062;5.804;2022-08-20T06:29:57;18.13;118.99
66726;HTU21D;53638;51.062;5.804;2022-08-20T06:32:23;18.13;118.99
66726;HTU21D;53638;51.062;5.804;2022-08-20T06:34:51;18.13;118.99
66726;HTU21D;53638;51.062;5.804;2022-08-20T06:37:21;18.09;118.99
66726;HTU21D;53638;51.062;5.804;2022-08-20T06:39:48;18.00;118.99
66726;HTU21D;53638;51.062;5.804;2022-08-20T06:42:14;17.97;118.99
66726;HTU21D;53638;51.062;5.804;2022-08-20T06:44:40;18.06;118.99
66726;HTU21D;53638;51.062;5.804;2022-08-20T06:47:06;18.18;118.99
66726;HTU21D;53638;51.062;5.804;2022-08-20T06:49:35;18.29;118.99
66726;HTU21D;53638;51.062;5.804;2022-08-20T06:52:03;18.35;118.99
66726;HTU21D;53638;51.062;5.804;2022-08-20T06:54:29;18.38;118.99
66726;HTU21D;53638;51.062;5.804;2022-08-20T06:56:55;18.40;118.99
66726;HTU21D;53638;51.062;5.804;2022-08-20T06:59:21;18.41;118.99
66726;HTU21D;53638;51.062;5.804;2022-08-20T07:01:47;18.38;118.99
66726;HTU21D;53638;51.062;5.804;2022-08-20T07:04:25;18.35;118.99
66726;HTU21D;53638;51.062;5.804;2022-08-20T07:06:52;18.37;118.99
66726;HTU21D;53638;51.062;5.804;2022-08-20T07:09:19;18.44;118.99
66726;HTU21D;53638;51.062;5.804;2022-08-20T07:11:46;18.51;118.99
66726;HTU21D;53638;51.062;5.804;2022-08-20T07:14:13;18.56;118.99
66726;HTU21D;53638;51.062;5.804;2022-08-20T07:16:39;18.59;118.99
66726;HTU21D;53638;51.062;5.804;2022-08-20T07:19:06;18.67;118.99
66726;HTU21D;53638;51.062;5.804;2022-08-20T07:21:33;18.74;118.99
66726;HTU21D;53638;51.062;5.804;2022-08-20T07:23:59;18.80;118.99
66726;HTU21D;53638;51.062;5.804;2022-08-20T07:26:25;18.84;118.99
66726;HTU21D;53638;51.062;5.804;2022-08-20T07:28:51;18.91;118.99
66726;HTU21D;53638;51.062;5.804;2022-08-20T07:31:17;18.93;118.99
66726;HTU21D;53638;51.062;5.804;2022-08-20T07:34:02;18.91;118.99
66726;HTU21D;53638;51.062;5.804;2022-08-20T07:36:28;18.95;118.99
66726;HTU21D;53638;51.062;5.804;2022-08-20T07:38:54;19.06;118.99
66726;HTU21D;53638;51.062;5.804;2022-08-20T07:41:20;19.09;118.99
66726;HTU21D;53638;51.062;5.804;2022-08-20T07:43:47;19.13;118.99
66726;HTU21D;53638;51.062;5.804;2022-08-20T07:46:18;19.21;118.99
66726;HTU21D;53638;51.062;5.804;2022-08-20T07:48:46;19.27;118.99
66726;HTU21D;53638;51.062;5.804;2022-08-20T07:51:16;19.29;118.99
66726;HTU21D;53638;51.062;5.804;2022-08-20T07:53:45;19.28;118.99
66726;HTU21D;53638;51.062;5.804;2022-08-20T07:56:15;19.32;118.99
66726;HTU21D;53638;51.062;5.804;2022-08-20T07:58:45;19.42;118.99
66726;HTU21D;53638;51.062;5.804;2022-08-20T08:01:17;19.55;118.99
66726;HTU21D;53638;51.062;5.804;2022-08-20T08:03:43;19.50;118.99
66726;HTU21D;53638;51.062;5.804;2022-08-20T08:06:09;19.43;118.99
66726;HTU21D;53638;51.062;5.804;2022-08-20T08:08:37;19.40;118.99
66726;HTU21D;53638;51.062;5.804;2022-08-20T08:11:05;19.37;118.99
66726;HTU21D;53638;51.062;5.804;2022-08-20T08:13:37;19.46;118.99
66726;HTU21D;53638;51.062;5.804;2022-08-20T08:16:05;19.61;118.99
66726;HTU21D;53638;51.062;5.804;2022-08-20T08:18:46;19.73;118.99
66726;HTU21D;53638;51.062;5.804;2022-08-20T08:21:15;19.61;118.99
66726;HTU21D;53638;51.062;5.804;2022-08-20T08:23:42;19.40;118.99
66726;HTU21D;53638;51.062;5.804;2022-08-20T08:26:12;19.31;118.99
66726;HTU21D;53638;51.062;5.804;2022-08-20T08:28:39;19.21;118.99
66726;HTU21D;53638;51.062;5.804;2022-08-20T08:31:06;19.24;118.99
66726;HTU21D;53638;51.062;5.804;2022-08-20T08:33:35;19.30;118.99
66726;HTU21D;53638;51.062;5.804;2022-08-20T08:36:05;19.47;118.99
66726;HTU21D;53638;51.062;5.804;2022-08-20T08:38:36;19.65;118.99
66726;HTU21D;53638;51.062;5.804;2022-08-20T08:41:20;19.75;118.99
66726;HTU21D;53638;51.062;5.804;2022-08-20T08:43:52;19.81;118.99
66726;HTU21D;53638;51.062;5.804;2022-08-20T08:46:24;19.95;118.99
66726;HTU21D;53638;51.062;5.804;2022-08-20T08:48:55;20.05;118.99
66726;HTU21D;53638;51.062;5.804;2022-08-20T08:51:31;20.05;118.99
66726;HTU21D;53638;51.062;5.804;2022-08-20T08:54:01;20.18;118.99
66726;HTU21D;53638;51.062;5.804;2022-08-20T08:56:29;20.40;118.99
66726;HTU21D;53638;51.062;5.804;2022-08-20T08:59:03;20.33;118.99
66726;HTU21D;53638;51.062;5.804;2022-08-20T09:01:32;20.12;118.99
66726;HTU21D;53638;51.062;5.804;2022-08-20T09:04:02;20.12;118.99
66726;HTU21D;53638;51.062;5.804;2022-08-20T09:06:30;20.13;118.99
66726;HTU21D;53638;51.062;5.804;2022-08-20T09:09:00;20.19;118.99
66726;HTU21D;53638;51.062;5.804;2022-08-20T09:11:29;20.20;118.99
66726;HTU21D;53638;51.062;5.804;2022-08-20T09:13:55;20.25;118.99
66726;HTU21D;53638;51.062;5.804;2022-08-20T09:16:23;20.30;118.99
66726;HTU21D;53638;51.062;5.804;2022-08-20T09:18:50;20.34;118.99
66726;HTU21D;53638;51.062;5.804;2022-08-20T09:21:17;20.31;118.99
66726;HTU21D;53638;51.062;5.804;2022-08-20T09:23:43;20.31;118.99
66726;HTU21D;53638;51.062;5.804;2022-08-20T09:26:09;20.42;118.99
66726;HTU21D;53638;51.062;5.804;2022-08-20T09:28:35;20.44;118.99
66726;HTU21D;53638;51.062;5.804;2022-08-20T09:31:02;20.42;118.99
66726;HTU21D;53638;51.062;5.804;2022-08-20T09:33:28;20.47;118.99
66726;HTU21D;53638;51.062;5.804;2022-08-20T09:35:54;20.49;118.99
66726;HTU21D;53638;51.062;5.804;2022-08-20T09:38:20;20.46;118.99
66726;HTU21D;53638;51.062;5.804;2022-08-20T09:40:46;20.36;118.99
66726;HTU21D;53638;51.062;5.804;2022-08-20T09:43:12;20.31;118.99
66726;HTU21D;53638;51.062;5.804;2022-08-20T09:45:38;20.40;118.99
66726;HTU21D;53638;51.062;5.804;2022-08-20T09:48:04;20.46;118.99
66726;HTU21D;53638;51.062;5.804;2022-08-20T09:50:34;20.64;118.99
66726;HTU21D;53638;51.062;5.804;2022-08-20T09:53:01;20.83;118.99
66726;HTU21D;53638;51.062;5.804;2022-08-20T09:55:35;20.91;118.99
66726;HTU21D;53638;51.062;5.804;2022-08-20T09:58:06;21.00;118.99
66726;HTU21D;53638;51.062;5.804;2022-08-20T10:00:34;21.29;118.99
66726;HTU21D;53638;51.062;5.804;2022-08-20T10:02:59;21.50;118.99
66726;HTU21D;53638;51.062;5.804;2022-08-20T10:05:26;21.43;118.99
66726;HTU21D;53638;51.062;5.804;2022-08-20T10:07:52;21.39;118.99
66726;HTU21D;53638;51.062;5.804;2022-08-20T10:10:18;21.52;118.99
66726;HTU21D;53638;51.062;5.804;2022-08-20T10:12:44;21.57;118.99
66726;HTU21D;53638;51.062;5.804;2022-08-20T10:15:11;21.47;118.99
66726;HTU21D;53638;51.062;5.804;2022-08-20T10:17:39;21.33;118.99
66726;HTU21D;53638;51.062;5.804;2022-08-20T10:20:08;21.16;118.99
66726;HTU21D;53638;51.062;5.804;2022-08-20T10:22:38;21.18;118.99
66726;HTU21D;53638;51.062;5.804;2022-08-20T10:25:04;21.23;118.99
66726;HTU21D;53638;51.062;5.804;2022-08-20T10:27:31;21.17;118.99
66726;HTU21D;53638;51.062;5.804;2022-08-20T10:30:07;21.10;118.99
66726;HTU21D;53638;51.062;5.804;2022-08-20T10:33:01;21.03;118.99
66726;HTU21D;53638;51.062;5.804;2022-08-20T10:35:36;20.96;118.99
66726;HTU21D;53638;51.062;5.804;2022-08-20T10:38:25;20.88;118.99
66726;HTU21D;53638;51.062;5.804;2022-08-20T10:41:12;20.83;118.99
66726;HTU21D;53638;51.062;5.804;2022-08-20T10:43:52;20.89;118.99
66726;HTU21D;53638;51.062;5.804;2022-08-20T10:46:51;20.92;118.99
66726;HTU21D;53638;51.062;5.804;2022-08-20T10:50:49;20.99;118.99
66726;HTU21D;53638;51.062;5.804;2022-08-20T11:05:40;26.15;118.99
66726;HTU21D;53638;51.062;5.804;2022-08-20T11:09:46;27.31;118.99
66726;HTU21D;53638;51.062;5.804;2022-08-20T11:26:07;30.09;108.07
66726;HTU21D;53638;51.062;5.804;2022-08-20T11:28:33;29.87;108.22
66726;HTU21D;53638;51.062;5.804;2022-08-20T11:31:42;29.78;106.75
66726;HTU21D;53638;51.062;5.804;2022-08-20T11:34:08;29.93;105.51
66726;HTU21D;53638;51.062;5.804;2022-08-20T11:36:36;30.03;102.95
66726;HTU21D;53638;51.062;5.804;2022-08-20T11:39:02;30.04;102.14
66726;HTU21D;53638;51.062;5.804;2022-08-20T11:41:28;30.23;102.12
66726;HTU21D;53638;51.062;5.804;2022-08-20T11:43:57;30.67;100.55
66726;HTU21D;53638;51.062;5.804;2022-08-20T11:46:43;30.75;98.71
66726;HTU21D;53638;51.062;5.804;2022-08-20T11:49:12;31.00;97.16
66726;HTU21D;53638;51.062;5.804;2022-08-20T11:51:43;31.27;94.55
66726;HTU21D;53638;51.062;5.804;2022-08-20T11:54:17;31.11;93.78
66726;HTU21D;53638;51.062;5.804;2022-08-20T11:57:11;31.18;92.98
66726;HTU21D;53638;51.062;5.804;2022-08-20T12:00:00;31.78;85.94
66726;HTU21D;53638;51.062;5.804;2022-08-20T12:02:35;31.49;88.62
66726;HTU21D;53638;51.062;5.804;2022-08-20T12:05:28;31.98;88.08
66726;HTU21D;53638;51.062;5.804;2022-08-20T12:08:35;32.52;86.58
66726;HTU21D;53638;51.062;5.804;2022-08-20T12:12:06;32.99;83.72
66726;HTU21D;53638;51.062;5.804;2022-08-20T12:15:26;33.50;79.44
66726;HTU21D;53638;51.062;5.804;2022-08-20T12:18:55;33.17;80.06
66726;HTU21D;53638;51.062;5.804;2022-08-20T12:26:08;34.81;74.08
66726;HTU21D;53638;51.062;5.804;2022-08-20T12:29:22;35.03;70.39
66726;HTU21D;53638;51.062;5.804;2022-08-20T12:33:14;34.93;69.07
66726;HTU21D;53638;51.062;5.804;2022-08-20T12:40:32;34.70;66.79
66726;HTU21D;53638;51.062;5.804;2022-08-20T12:43:02;35.22;65.53
66726;HTU21D;53638;51.062;5.804;2022-08-20T12:46:09;35.39;64.22
66726;HTU21D;53638;51.062;5.804;2022-08-20T12:49:26;34.96;65.28
66726;HTU21D;53638;51.062;5.804;2022-08-20T12:52:31;34.61;63.84
66726;HTU21D;53638;51.062;5.804;2022-08-20T12:59:12;35.06;61.99
66726;HTU21D;53638;51.062;5.804;2022-08-20T13:01:40;35.53;59.48
66726;HTU21D;53638;51.062;5.804;2022-08-20T13:04:09;35.62;60.92
66726;HTU21D;53638;51.062;5.804;2022-08-20T13:06:35;36.08;59.38
66726;HTU21D;53638;51.062;5.804;2022-08-20T13:09:01;36.48;57.03
66726;HTU21D;53638;51.062;5.804;2022-08-20T13:11:27;36.32;57.08
66726;HTU21D;53638;51.062;5.804;2022-08-20T13:13:53;35.87;57.13
66726;HTU21D;53638;51.062;5.804;2022-08-20T13:16:19;36.07;57.96
66726;HTU21D;53638;51.062;5.804;2022-08-20T13:18:45;36.52;57.33
66726;HTU21D;53638;51.062;5.804;2022-08-20T13:21:12;36.58;61.33
66726;HTU21D;53638;51.062;5.804;2022-08-20T13:24:08;36.95;57.91
66726;HTU21D;53638;51.062;5.804;2022-08-20T13:26:42;37.46;54.14
66726;HTU21D;53638;51.062;5.804;2022-08-20T13:29:12;36.77;51.37
66726;HTU21D;53638;51.062;5.804;2022-08-20T13:31:39;35.82;55.86
66726;HTU21D;53638;51.062;5.804;2022-08-20T13:34:05;35.06;57.24
66726;HTU21D;53638;51.062;5.804;2022-08-20T13:36:31;35.31;57.76
66726;HTU21D;53638;51.062;5.804;2022-08-20T13:39:06;35.68;55.81
66726;HTU21D;53638;51.062;5.804;2022-08-20T13:41:32;35.23;56.97
66726;HTU21D;53638;51.062;5.804;2022-08-20T13:44:01;34.67;58.30
66726;HTU21D;53638;51.062;5.804;2022-08-20T13:46:34;34.92;57.81
66726;HTU21D;53638;51.062;5.804;2022-08-20T13:49:05;35.88;58.42
66726;HTU21D;53638;51.062;5.804;2022-08-20T13:51:56;36.75;50.81
66726;HTU21D;53638;51.062;5.804;2022-08-20T13:54:44;37.00;55.29
66726;HTU21D;53638;51.062;5.804;2022-08-20T13:57:51;36.39;54.85
66726;HTU21D;53638;51.062;5.804;2022-08-20T14:00:25;35.62;55.74
66726;HTU21D;53638;51.062;5.804;2022-08-20T14:03:17;35.35;54.84
66726;HTU21D;53638;51.062;5.804;2022-08-20T14:05:43;35.48;55.87
66726;HTU21D;53638;51.062;5.804;2022-08-20T14:08:14;35.62;54.58
66726;HTU21D;53638;51.062;5.804;2022-08-20T14:10:42;35.05;52.94
66726;HTU21D;53638;51.062;5.804;2022-08-20T14:13:10;33.53;57.74
66726;HTU21D;53638;51.062;5.804;2022-08-20T14:15:45;32.79;59.73
66726;HTU21D;53638;51.062;5.804;2022-08-20T14:18:12;33.20;59.67
66726;HTU21D;53638;51.062;5.804;2022-08-20T14:20:39;33.93;58.80
66726;HTU21D;53638;51.062;5.804;2022-08-20T14:23:06;34.61;56.70
66726;HTU21D;53638;51.062;5.804;2022-08-20T14:29:48;35.12;54.61
66726;HTU21D;53638;51.062;5.804;2022-08-20T14:32:15;35.26;54.01
66726;HTU21D;53638;51.062;5.804;2022-08-20T14:35:28;35.40;54.21
66726;HTU21D;53638;51.062;5.804;2022-08-20T14:38:22;35.63;54.27
66726;HTU21D;53638;51.062;5.804;2022-08-20T14:41:13;35.65;54.18
66726;HTU21D;53638;51.062;5.804;2022-08-20T14:44:13;35.20;54.29
66726;HTU21D;53638;51.062;5.804;2022-08-20T14:46:42;35.00;54.35
66726;HTU21D;53638;51.062;5.804;2022-08-20T14:49:50;34.82;54.72
66726;HTU21D;53638;51.062;5.804;2022-08-20T14:52:54;34.57;54.07
66726;HTU21D;53638;51.062;5.804;2022-08-20T14:55:51;34.07;54.75
66726;HTU21D;53638;51.062;5.804;2022-08-20T14:58:19;33.96;54.59
66726;HTU21D;53638;51.062;5.804;2022-08-20T15:00:51;33.78;55.00
66726;HTU21D;53638;51.062;5.804;2022-08-20T15:04:04;32.63;55.71
66726;HTU21D;53638;51.062;5.804;2022-08-20T15:06:30;31.66;57.09
66726;HTU21D;53638;51.062;5.804;2022-08-20T15:09:01;30.81;59.67
66726;HTU21D;53638;51.062;5.804;2022-08-20T15:11:34;30.12;61.43
66726;HTU21D;53638;51.062;5.804;2022-08-20T15:14:26;29.79;62.89
66726;HTU21D;53638;51.062;5.804;2022-08-20T15:17:26;30.47;63.27
66726;HTU21D;53638;51.062;5.804;2022-08-20T15:19:56;31.33;61.33
66726;HTU21D;53638;51.062;5.804;2022-08-20T15:22:25;31.97;60.30
66726;HTU21D;53638;51.062;5.804;2022-08-20T15:25:34;32.46;56.40
66726;HTU21D;53638;51.062;5.804;2022-08-20T15:27:50;32.82;57.40
66726;HTU21D;53638;51.062;5.804;2022-08-20T15:30:54;32.72;56.81
66726;HTU21D;53638;51.062;5.804;2022-08-20T15:33:20;32.77;55.43
66726;HTU21D;53638;51.062;5.804;2022-08-20T15:36:27;32.85;55.07
66726;HTU21D;53638;51.062;5.804;2022-08-20T15:38:41;32.86;55.88
66726;HTU21D;53638;51.062;5.804;2022-08-20T15:41:15;33.08;55.21
66726;HTU21D;53638;51.062;5.804;2022-08-20T15:43:41;33.27;54.78
66726;HTU21D;53638;51.062;5.804;2022-08-20T15:46:10;33.04;54.81
66726;HTU21D;53638;51.062;5.804;2022-08-20T15:49:19;32.92;55.15
66726;HTU21D;53638;51.062;5.804;2022-08-20T15:52:14;33.18;54.76
66726;HTU21D;53638;51.062;5.804;2022-08-20T15:54:45;33.20;54.77
66726;HTU21D;53638;51.062;5.804;2022-08-20T15:57:55;33.15;52.86
66726;HTU21D;53638;51.062;5.804;2022-08-20T16:00:33;32.78;54.08
66726;HTU21D;53638;51.062;5.804;2022-08-20T16:06:26;32.23;54.18
66726;HTU21D;53638;51.062;5.804;2022-08-20T16:14:29;30.78;56.58
66726;HTU21D;53638;51.062;5.804;2022-08-20T16:17:14;29.96;58.48
66726;HTU21D;53638;51.062;5.804;2022-08-20T16:22:28;30.49;58.45
66726;HTU21D;53638;51.062;5.804;2022-08-20T16:24:55;30.41;58.44
66726;HTU21D;53638;51.062;5.804;2022-08-20T16:27:33;30.60;58.86
66726;HTU21D;53638;51.062;5.804;2022-08-20T16:30:07;30.94;57.71
66726;HTU21D;53638;51.062;5.804;2022-08-20T16:32:42;31.08;57.21
66726;HTU21D;53638;51.062;5.804;2022-08-20T16:35:24;31.37;55.58